Flight Track Log - Related Links

Times and Time Zones

All times are in EST time to prevent confusion due to time zone crossing. See the N5339V flight status page for this flight to view local times or setup timezone preferences in your user account.

Time Position Orientation Groundspeed Altitude Reporting Facility
EST Latitude Longitude Course Direction KTS MPH feet Rate Location/Type
Sun 04:30:26 PM 33.8167 -118.1833 210° Southwest 104 120 800  Level Southern California TRACON
Sun 04:31:27 PM 33.7947 -118.1983 210° Southwest 119 137 1,900 1,122 Climbing Los Angeles Center
Sun 04:32:29 PM 33.7650 -118.2197 211° Southwest 125 144 3,100 1,113 Climbing Los Angeles Center
Sun 04:33:31 PM 33.7339 -118.2408 209° Southwest 125 144 4,200 1,056 Climbing Los Angeles Center
Sun 04:34:34 PM 33.7050 -118.2567 205° Southwest 116 133 5,300 912 Climbing Los Angeles Center
Sun 04:35:36 PM 33.6703 -118.2514 173° South 132 152 6,100 919 Climbing Los Angeles Center
Sun 04:36:38 PM 33.6278 -118.2436 171° South 144 166 7,200 1,016 Climbing Los Angeles Center
Sun 04:37:40 PM 33.5883 -118.2300 164° South 166 191 8,200 1,051 Climbing Los Angeles Center
Sun 04:38:55 PM 33.5964 -118.1678 81° East 177 204 9,600 1,147 Climbing Los Angeles Center
Sun 04:39:56 PM 33.6367 -118.1494 21° North 166 191 10,800 1,016 Climbing Los Angeles Center
Sun 04:40:59 PM 33.6758 -118.1550 353° North 153 176 11,700 960 Climbing Los Angeles Center
Sun 04:42:01 PM 33.7192 -118.1786 336° Northwest 163 188 12,800 968 Climbing Los Angeles Center
Sun 04:43:03 PM 33.7478 -118.1228 58° Northeast 196 226 13,700 823 Climbing Los Angeles Center
Sun 04:44:05 PM 33.7764 -118.0661 59° Northeast 201 231 14,500 823 Climbing Los Angeles Center
Sun 04:45:07 PM 33.8158 -118.0231 42° Northeast 198 228 15,400 871 Climbing Los Angeles Center
Sun 04:46:09 PM 33.8581 -117.9864 36° Northeast 190 219 16,300 1,016 Climbing Los Angeles Center
Sun 04:47:11 PM 33.9100 -117.9386 37° Northeast 194 223 17,500 871 Climbing Los Angeles Center
Sun 04:48:13 PM 33.9536 -117.9000 36° Northeast 196 226 18,100 726 Climbing Los Angeles Center
Sun 04:49:15 PM 33.9969 -117.8603 37° Northeast 197 227 19,000 823 Climbing Los Angeles Center
Sun 04:50:17 PM 34.0406 -117.8208 37° Northeast 195 224 19,800 816 Climbing Los Angeles Center
Sun 04:51:20 PM 34.0847 -117.7800 37° Northeast 198 228 20,700 876 Climbing Los Angeles Center
Sun 04:52:34 PM 34.1306 -117.7158 49° Northeast 210 242 21,800 971 Climbing Los Angeles Center
Sun 04:53:36 PM 34.1781 -117.6497 49° Northeast 215 247 22,900 919 Climbing Los Angeles Center
Sun 04:54:38 PM 34.2192 -117.5925 49° Northeast 223 257 23,700 726 Climbing Los Angeles Center
Sun 04:55:40 PM 34.2619 -117.5344 48° Northeast 228 262 24,400 629 Climbing Los Angeles Center
Sun 04:56:42 PM 34.3078 -117.4750 47° Northeast 237 273 25,000 290 Climbing Los Angeles Center
Sun 04:57:44 PM 34.3569 -117.4100 47° Northeast 253 291 25,000  Level Los Angeles Center
Sun 04:58:47 PM 34.4097 -117.3339 50° Northeast 281 323 25,000  Level Los Angeles Center
Sun 04:59:49 PM 34.4742 -117.2494 47° Northeast 285 328 25,000  Level Los Angeles Center
Sun 05:00:51 PM 34.5261 -117.1761 49° Northeast 287 330 25,000  Level Los Angeles Center
Sun 05:01:53 PM 34.5792 -117.1033 48° Northeast 288 331 25,000 48 Level Los Angeles Center
Sun 05:02:55 PM 34.6314 -117.0297 49° Northeast 289 333 25,100 48 Climbing Los Angeles Center
Sun 05:03:57 PM 34.6856 -116.9572 48° Northeast 291 335 25,100  Level Los Angeles Center
Sun 05:04:59 PM 34.7389 -116.8828 49° Northeast 291 335 25,100  Level Los Angeles Center
Sun 05:06:01 PM 34.8033 -116.7942 48° Northeast 292 336 25,100  Level Los Angeles Center
Sun 05:07:03 PM 34.8564 -116.7194 49° Northeast 293 337 25,100  Level Los Angeles Center
Sun 05:08:06 PM 34.9106 -116.6450 48° Northeast 294 338 25,100  Level Los Angeles Center
Sun 05:09:07 PM 34.9656 -116.5706 48° Northeast 295 339 25,100  Level Los Angeles Center
Sun 05:10:09 PM 35.0097 -116.5133 47° Northeast 293 337 25,100  Level Los Angeles Center
Sun 05:11:11 PM 35.0931 -116.4106 45° Northeast 302 348 25,100  Level Los Angeles Center
Sun 05:12:14 PM 35.1506 -116.3375 46° Northeast 302 348 25,100  Level Los Angeles Center
Sun 05:13:16 PM 35.2103 -116.2650 45° Northeast 303 349 25,100  Level Los Angeles Center
Sun 05:14:18 PM 35.2706 -116.1889 46° Northeast 308 354 25,100  Level Los Angeles Center
Sun 05:15:20 PM 35.3289 -116.1136 46° Northeast 306 352 25,100  Level Los Angeles Center
Sun 05:16:22 PM 35.3875 -116.0397 46° Northeast 304 350 25,100  Level Los Angeles Center
Sun 05:17:36 PM 35.4586 -115.9486 46° Northeast 308 354 25,100  Level Los Angeles Center
Sun 05:18:38 PM 35.5358 -115.8564 44° Northeast 305 351 25,100  Level Los Angeles Center
Sun 05:19:40 PM 35.5947 -115.7806 46° Northeast 305 351 25,100  Level Los Angeles Center
Sun 05:20:42 PM 35.6558 -115.7025 46° Northeast 312 359 25,100  Level Los Angeles Center
Sun 05:21:44 PM 35.7164 -115.6256 46° Northeast 314 361 25,100  Level Los Angeles Center
Sun 05:22:46 PM 35.7753 -115.5489 47° Northeast 310 357 25,100  Level Los Angeles Center
Sun 05:23:48 PM 35.8461 -115.4578 46° Northeast 308 354 25,100  Level Los Angeles Center
Sun 05:24:50 PM 35.9053 -115.3819 46° Northeast 308 354 25,100  Level Los Angeles Center
Sun 05:25:52 PM 35.9650 -115.3064 46° Northeast 309 356 25,100  Level Los Angeles Center
Sun 05:26:54 PM 36.0236 -115.2303 46° Northeast 307 353 25,100  Level Los Angeles Center
Sun 05:27:56 PM 36.0811 -115.1539 47° Northeast 307 353 25,100  Level Los Angeles Center
Sun 05:28:58 PM 36.1647 -115.0750 37° Northeast 319 367 25,100  Level Los Angeles Center
Sun 05:30:00 PM 36.2364 -115.0131 35° Northeast 321 369 25,100  Level Los Angeles Center
Sun 05:31:03 PM 36.3056 -114.9494 37° Northeast 314 361 25,100  Level Los Angeles Center
Sun 05:32:05 PM 36.3753 -114.8844 37° Northeast 315 362 25,100  Level Los Angeles Center
Sun 05:33:07 PM 36.4181 -114.7978 58° Northeast 303 349 25,100  Level Los Angeles Center
Sun 05:34:09 PM 36.4533 -114.7089 64° Northeast 290 334 25,100  Level Los Angeles Center
Sun 05:35:11 PM 36.4981 -114.6017 63° Northeast 291 335 25,100  Level Los Angeles Center
Sun 05:36:13 PM 36.5617 -114.5272 43° Northeast 319 367 25,100  Level Los Angeles Center
Sun 05:37:15 PM 36.6247 -114.4542 43° Northeast 314 361 25,100  Level Los Angeles Center
Sun 05:38:17 PM 36.6828 -114.3769 47° Northeast 309 356 25,100  Level Los Angeles Center
Sun 05:39:19 PM 36.7411 -114.2994 47° Northeast 308 354 25,100  Level Los Angeles Center
Sun 05:40:21 PM 36.8089 -114.2344 38° Northeast 309 356 25,100  Level Los Angeles Center
Sun 05:41:23 PM 36.9014 -114.1686 30° Northeast 321 369 25,100  Level Los Angeles Center
Sun 05:42:25 PM 36.9744 -114.1114 32° Northeast 315 362 25,100  Level Los Angeles Center
Sun 05:43:27 PM 37.0486 -114.0531 32° Northeast 315 362 25,100  Level Los Angeles Center
Sun 05:44:29 PM 37.1228 -113.9950 32° Northeast 314 361 25,100  Level Los Angeles Center
Sun 05:45:07 PM 37.1700 -113.9572 33° Northeast 313 360 25,100  Level Salt Lake Center
Sun 05:46:08 PM 37.2436 -113.8994 32° Northeast 312 359 25,100  Level Salt Lake Center
Sun 05:47:10 PM 37.3175 -113.8422 32° Northeast 311 358 25,100  Level Salt Lake Center
Sun 05:48:12 PM 37.3906 -113.7850 32° Northeast 311 358 25,100  Level Salt Lake Center
Sun 05:49:14 PM 37.4781 -113.7164 32° Northeast 309 356 25,100  Level Salt Lake Center
Sun 05:50:16 PM 37.5506 -113.6589 32° Northeast 308 354 25,100  Level Salt Lake Center
Sun 05:51:18 PM 37.6231 -113.6022 32° Northeast 307 353 25,100  Level Salt Lake Center
Sun 05:52:20 PM 37.6950 -113.5447 32° Northeast 306 352 25,100  Level Salt Lake Center
Sun 05:53:22 PM 37.7675 -113.4875 32° Northeast 306 352 25,100  Level Salt Lake Center
Sun 05:54:23 PM 37.8394 -113.4297 32° Northeast 306 352 25,100  Level Salt Lake Center
Sun 05:55:25 PM 37.9111 -113.3719 32° Northeast 305 351 25,100  Level Salt Lake Center
Sun 05:56:27 PM 37.9981 -113.3031 32° Northeast 306 352 25,100  Level Salt Lake Center
Sun 05:57:29 PM 38.0697 -113.2458 32° Northeast 304 350 25,100  Level Salt Lake Center
Sun 05:58:31 PM 38.1408 -113.1892 32° Northeast 303 349 25,100  Level Salt Lake Center
Sun 05:59:33 PM 38.2117 -113.1322 32° Northeast 302 348 25,100  Level Salt Lake Center
Sun 06:00:35 PM 38.2836 -113.0731 33° Northeast 305 351 25,100  Level Salt Lake Center
Sun 06:01:37 PM 38.3542 -113.0161 32° Northeast 302 348 25,100  Level Salt Lake Center
Sun 06:02:39 PM 38.4278 -112.9664 28° Northeast 301 346 25,100  Level Salt Lake Center
Sun 06:03:41 PM 38.5211 -112.9236 20° North 301 346 25,100  Level Salt Lake Center
Sun 06:04:42 PM 38.5978 -112.8811 23° Northeast 301 346 25,100  Level Salt Lake Center
Sun 06:05:44 PM 38.6731 -112.8392 24° Northeast 298 343 25,100  Level Salt Lake Center
Sun 06:06:46 PM 38.7489 -112.7975 23° Northeast 297 342 25,100  Level Salt Lake Center
Sun 06:07:48 PM 38.8244 -112.7553 24° Northeast 296 341 25,100 -48 Level Salt Lake Center
Sun 06:08:50 PM 38.9003 -112.7153 22° Northeast 296 341 25,000 -435 Descending Salt Lake Center
Sun 06:09:52 PM 38.9756 -112.6731 24° Northeast 296 341 24,200 -878 Descending Salt Lake Center
Sun 06:10:53 PM 39.0642 -112.6250 23° Northeast 291 335 23,200 -878 Descending Salt Lake Center
Sun 06:11:55 PM 39.1381 -112.5850 23° Northeast 289 333 22,400 -774 Descending Salt Lake Center
Sun 06:12:57 PM 39.2119 -112.5431 24° Northeast 290 334 21,600 -774 Descending Salt Lake Center
Sun 06:13:59 PM 39.2806 -112.5039 24° Northeast 287 330 20,800 -780 Descending Salt Lake Center
Sun 06:15:00 PM 39.3497 -112.4661 23° Northeast 278 320 20,000 -878 Descending Salt Lake Center
Sun 06:16:02 PM 39.4303 -112.4200 24° Northeast 269 310 19,000 -823 Descending Salt Lake Center
Sun 06:17:04 PM 39.4961 -112.3839 23° Northeast 262 302 18,300 -581 Descending Salt Lake Center
Sun 06:18:06 PM 39.5617 -112.3475 23° Northeast 259 298 17,800 -585 Descending Salt Lake Center
Sun 06:19:07 PM 39.6250 -112.3136 22° Northeast 253 291 17,100 -683 Descending Salt Lake Center
Sun 06:20:09 PM 39.6889 -112.2767 24° Northeast 252 290 16,400 -774 Descending Salt Lake Center
Sun 06:21:11 PM 39.7522 -112.2397 24° Northeast 251 289 15,500 -919 Descending Salt Lake Center
Sun 06:22:13 PM 39.8117 -112.2058 24° Northeast 244 281 14,500 -1,016 Descending Salt Lake Center
Sun 06:23:15 PM 39.8800 -112.1658 24° Northeast 228 262 13,400 -927 Descending Salt Lake Center
Sun 06:24:16 PM 39.9372 -112.1336 23° Northeast 226 260 12,600 -585 Descending Salt Lake Center
Sun 06:25:18 PM 39.9922 -112.1025 23° Northeast 218 251 12,200 -242 Descending Salt Lake Center
Sun 06:26:20 PM 40.0431 -112.0728 24° Northeast 205 236 12,100 -97 Descending Salt Lake Center
Sun 06:27:22 PM 40.0953 -112.0433 23° Northeast 204 235 12,000 -52 Descending Salt Lake Center
Sun 06:28:15 PM 40.1475 -112.0217 18° North 214 246 12,000 -53 Level Salt Lake Center
Sun 06:29:15 PM 40.2014 -111.9897 24° Northeast 216 249 11,900 -347 Descending Salt Lake Center
Sun 06:30:16 PM 40.2572 -111.9567 24° Northeast 213 245 11,300 -677 Descending Salt Lake Center
Sun 06:31:28 PM 40.3219 -111.9222 22° Northeast 199 229 10,400 -803 Descending Salt Lake Center
Sun 06:32:23 PM 40.3692 -111.9131 North 196 226 9,600 -776 Descending Salt Lake Center
Sun 06:33:24 PM 40.4219 -111.9067 North 188 216 8,900 -522 Descending Salt Lake Center
Sun 06:34:18 PM 40.4658 -111.9003 North 174 200 8,600 -257 Descending Salt Lake Center
Sun 06:34:34 PM 40.4744 -111.8942 28° Northeast 174 200 8,600 -98 Level Salt Lake Center
Sun 06:35:19 PM 40.5164 -111.8942 360° North 184 212 8,500 -98 Descending Salt Lake Center
Sun 06:35:35 PM 40.5253 -111.8900 20° North 181 208 8,500 -300 Level Salt Lake Center
Sun 06:36:19 PM 40.5683 -111.8964 354° North 187 215 8,200 -387 Descending Salt Lake Center
Sun 06:36:37 PM 40.5783 -111.8953 North 189 217 8,100 -787 Descending Salt Lake Center
Sun 06:37:20 PM 40.6211 -111.9011 354° North 187 215 7,400 -984 Descending Salt Lake Center
Sun 06:37:38 PM 40.6400 -111.8989 North 186 214 7,100 -806 Descending Salt Lake Center
Sun 06:38:27 PM 40.6797 -111.9036 355° North 183 211 6,500 -550 Descending Salt Lake Center
Sun 06:39:27 PM 40.7258 -111.9078 356° North 171 197 6,100 -320 Descending Salt Lake Center
Sun 06:39:42 PM 40.7367 -111.9053 10° North 171 197 6,100 -197 Level Salt Lake Center
Sun 06:40:28 PM 40.7672 -111.9106 353° North 153 176 5,900 -295 Descending Salt Lake Center
Sun 06:40:43 PM 40.7764 -111.9108 359° North 148 170 5,800 -358 Descending Salt Lake Center
Sun 06:41:35 PM 40.8097 -111.9189 350° North 128 147 5,500 -145 Descending Salt Lake Center
Sun 06:42:47 PM 40.8450 -111.9208 358° North 127 146 5,500  Level Salt Lake Center
Sun 06:44:00 PM 40.8667 -111.9167 North  Level FlightAware Approximate
Sun 06:51:00 PM 40.8694 -111.9272 North  Level Estimated
Sun 06:52:00 PM 40.8694 -111.9272 North  Level Estimated

Login

Don't have an account? Register now (free) for customized features, flight alerts, and more!